• Join FlightAware (Why Join?)
  • Login
  • US Flag 
12:22PM EDT


 

Airport Tracker/Info


-or-


 

Live Flight TrackerFlight Track Log ✈ UAL623 ✈ 11-May-2013 ✈ KDCA - KORD

Flight Track Log - Related Links

Times and Time Zones

All times are in EDT time to prevent confusion due to time zone crossing. See the UAL623 flight status page for this flight to view local times or setup timezone preferences in your user account.

Time Position Orientation Groundspeed Altitude Reporting Facility
EDT Latitude Longitude Course Direction KTS MPH feet Rate Location/Type
03:39PM 38.7833 -77.0333 270° West 194 223 2,000  Level Potomac TRACON
03:40PM 38.7333 -77.0833 218° Southwest 254 292 5,000 3,300 Climbing Potomac TRACON
03:41PM 38.9102 -77.3768 322° Northwest  Level FlightAware Approximate
03:41PM 38.7500 -77.1667 284° West 257 296 9,000  Level Potomac TRACON
03:42PM 38.9333 -77.4909 270° West  Level FlightAware Approximate
03:42PM 38.7833 -77.2500 297° West 273 314 11,500  Level Potomac TRACON
03:43PM 38.9333 -77.6153 270° West  Level FlightAware Approximate
03:43PM 38.8000 -77.3333 284° West 288 331 13,600  Level Potomac TRACON
03:44PM 38.9333 -77.7397 270° West  Level FlightAware Approximate
03:45PM 38.7886 -77.5811 267° West 327 376 18,500  Level Washington Center
03:46PM 38.7806 -77.6900 265° West 338 389 19,900 1,800 Climbing Washington Center
03:47PM 38.7803 -77.8181 270° West 354 407 22,100 1,860 Climbing Washington Center
03:48PM 38.8406 -77.9317 304° West 354 407 23,700 1,560 Climbing Washington Center
03:49PM 38.8797 -78.0608 291° West 366 421 25,300 1,560 Climbing Washington Center
03:50PM 38.9000 -78.1897 281° West 376 433 26,800 1,380 Climbing Washington Center
03:51PM 38.9136 -78.3261 277° West 382 440 28,100 1,140 Climbing Washington Center
03:52PM 38.9250 -78.4653 276° West 393 452 29,200 1,140 Climbing Washington Center
03:53PM 38.9400 -78.6208 277° West 393 452 30,500 2,280 Climbing Washington Center
03:54PM 38.9497 -78.7306 277° West 379 436 33,900 1,740 Climbing Washington Center
03:55PM 38.9592 -78.8431 276° West 347 399 34,000  Climbing Washington Center
03:56PM 38.9706 -78.9611 277° West 335 386 34,000 120 Level Washington Center
03:57PM 38.9817 -79.0764 277° West 335 386 34,300 660 Climbing Washington Center
03:58PM 38.9889 -79.1917 275° West 335 386 35,400 840 Climbing Washington Center
03:59PM 38.9997 -79.3097 277° West 335 386 36,000 240 Climbing Washington Center
04:00PM 39.0086 -79.4250 276° West 330 380 36,000  Level Washington Center
04:01PM 39.0194 -79.5406 277° West 335 386 36,000  Level Washington Center
04:02PM 39.0294 -79.6775 275° West 344 396 36,000  Level Washington Center
04:03PM 39.0381 -79.7928 276° West 344 396 36,000  Level Washington Center
04:06PM 39.0564 -80.0683 275° West 339 390 36,000  Level Indianapolis Center
04:07PM 39.0664 -80.2008 276° West 340 391 36,000  Level Indianapolis Center
04:08PM 39.0767 -80.3200 276° West 336 387 36,000  Level Indianapolis Center
04:09PM 39.0839 -80.4386 275° West 334 384 36,000  Level Indianapolis Center
04:10PM 39.0936 -80.5569 276° West 333 383 36,000  Level Indianapolis Center
04:11PM 39.1400 -80.6692 298° West 358 412 36,000  Level Indianapolis Center
04:12PM 39.2025 -80.8131 299° West 383 441 36,000  Level Indianapolis Center
04:13PM 39.2569 -80.9364 300° West 395 455 36,000  Level Indianapolis Center
04:14PM 39.3097 -81.0575 299° West 391 450 36,000  Level Indianapolis Center
04:15PM 39.3628 -81.1806 299° West 393 452 36,000  Level Indianapolis Center
04:16PM 39.4147 -81.3031 299° West 391 450 36,000  Level Indianapolis Center
04:17PM 39.4678 -81.4281 299° West 397 457 36,000  Level Indianapolis Center
04:18PM 39.5219 -81.5519 300° West 398 458 36,000  Level Indianapolis Center
04:19PM 39.5753 -81.6786 299° West 400 460 36,000  Level Indianapolis Center
04:20PM 39.6281 -81.8053 298° West 399 459 36,000  Level Indianapolis Center
04:21PM 39.6925 -81.9561 299° West 398 458 36,000 -60 Level Indianapolis Center
04:22PM 39.7411 -82.0711 299° West 400 460 35,900 -60 Descending Indianapolis Center
04:23PM 39.7944 -82.2000 298° West 401 461 35,900  Level Indianapolis Center
04:24PM 39.8483 -82.3303 298° West 405 466 36,000  Climbing Indianapolis Center
04:25PM 39.9025 -82.4611 298° West 409 471 36,000 -60 Level Indianapolis Center
04:26PM 39.9650 -82.6136 298° West 406 467 35,900 -60 Descending Indianapolis Center
04:27PM 40.0186 -82.7433 298° West 406 467 35,900  Level Indianapolis Center
04:28PM 40.0722 -82.8758 298° West 409 471 36,000  Climbing Indianapolis Center
04:29PM 40.1261 -83.0058 298° West 407 468 36,000  Level Indianapolis Center
04:30PM 40.1792 -83.1394 297° West 413 475 36,000 -60 Level Indianapolis Center
04:31PM 40.2319 -83.2686 298° West 405 466 35,900 -60 Descending Indianapolis Center
04:32PM 40.2856 -83.4019 298° West 412 474 35,900  Level Indianapolis Center
04:33PM 40.3386 -83.5356 298° West 413 475 36,000  Climbing Indianapolis Center
04:34PM 40.3919 -83.6681 298° West 410 472 36,000 -300 Level Indianapolis Center
04:35PM 40.4447 -83.8019 297° West 411 473 35,400 -840 Descending Indianapolis Center
04:36PM 40.5075 -83.9606 298° West 415 478 34,300 -780 Descending Indianapolis Center
04:37PM 40.5611 -84.0975 297° West 419 482 33,900 -180 Descending Indianapolis Center
04:38PM 40.6147 -84.2356 297° West 420 483 34,000  Climbing Indianapolis Center
04:39PM 40.6672 -84.3706 297° West 415 478 34,000  Level Indianapolis Center
04:40PM 40.6997 -84.4522 298° West 411 473 34,000  Level Chicago Center
04:41PM 40.7489 -84.5833 296° West 403 464 34,000  Level Chicago Center
04:42PM 40.8100 -84.7403 297° West 401 461 34,000  Level Chicago Center
04:43PM 40.8589 -84.8706 296° West 398 458 34,000  Level Chicago Center
04:44PM 40.9072 -85.0014 296° West 397 457 34,000  Level Chicago Center
04:45PM 40.9558 -85.1308 296° West 394 453 34,000  Level Chicago Center
04:46PM 41.0042 -85.2633 296° West 397 457 34,000 -180 Level Chicago Center
04:47PM 41.0528 -85.3947 296° West 398 458 33,700 -1,140 Descending Chicago Center
04:48PM 41.0986 -85.5239 295° West 391 450 31,700 -2,160 Descending Chicago Center
04:49PM 41.1464 -85.6556 296° West 391 450 29,300 -2,400 Descending Chicago Center
04:50PM 41.1936 -85.7872 296° West 393 452 26,900 -2,100 Descending Chicago Center
04:52PM 41.2486 -85.9403 296° West 383 441 25,000 -1,020 Descending Chicago Center
04:53PM 41.2933 -86.0681 295° West 380 437 24,900 -960 Descending Chicago Center
04:54PM 41.3358 -86.1950 294° West 375 432 23,100 -1,800 Descending Chicago Center
04:55PM 41.3781 -86.3172 295° West 363 418 21,300 -1,860 Descending Chicago Center
04:56PM 41.4194 -86.4372 295° West 356 410 19,400 -1,860 Descending Chicago Center
04:57PM 41.4589 -86.5539 294° West 346 398 17,500 -1,860 Descending Chicago Center
04:58PM 41.4967 -86.6678 294° West 338 389 15,700 -1,920 Descending Chicago Center
04:59PM 41.5511 -86.7792 303° West 334 384 13,600 -1,800 Descending Chicago Center
05:00PM 41.6494 -86.7933 354° North 364 419 12,100 -840 Descending Chicago Center
05:01PM 41.7503 -86.8058 355° North 364 419 12,000 -60 Descending Chicago Center
05:02PM 41.8494 -86.8261 351° North 362 417 12,000 -720 Level Chicago Center
05:03PM 41.9244 -86.9256 315° West 324 373 10,600 -1,020 Descending Chicago Center
05:04PM 41.9653 -87.0219 300° West 304 350 10,000 -840 Descending Chicago Center
05:05PM 41.9819 -87.1081 285° West 252 290 9,000 -660 Descending Chicago Center
05:06PM 41.9831 -87.1997 271° West 246 283 8,700 -1,020 Descending Chicago Center
05:07PM 41.9831 -87.2864 270° West 237 273 7,000 -840 Descending Chicago Center
05:08PM 41.9833 -87.3769 270° West 243 280 7,000 -120 Level Chicago Center
05:09PM 41.9828 -87.4664 270° West 242 278 6,800 -720 Descending Chicago Center
05:10PM 41.9833 -87.5333 271° West 208 239 5,700 -1,080 Descending Chicago TRACON
05:12PM 41.9833 -87.6667 270° West 172 198 4,000 -960 Descending Chicago TRACON
05:13PM 41.9833 -87.7333 270° West 170 196 2,900 -960 Descending Chicago TRACON
05:14PM 41.9833 -87.8000 270° West 164 189 2,000 -900 Descending Chicago TRACON